createdAt,value
2022-10-17T00:01:08.056Z,93.24
2022-10-17T00:06:13.891Z,93.14
2022-10-17T00:11:20.410Z,92.32
2022-10-17T00:16:24.525Z,90.78
2022-10-17T00:21:27.225Z,90.89
2022-10-17T00:26:30.096Z,90.64
2022-10-17T00:31:32.905Z,90.15
2022-10-17T00:36:35.547Z,90.26
2022-10-17T00:41:38.162Z,90.60
2022-10-17T00:46:40.812Z,90.17
2022-10-17T00:51:46.898Z,91.32
2022-10-17T00:56:50.309Z,91.21
2022-10-17T01:02:11.750Z,91.71
2022-10-17T01:07:14.757Z,91.01
2022-10-17T01:12:22.474Z,90.86
2022-10-17T01:17:59.219Z,90.23
2022-10-17T01:23:19.107Z,90.94
2022-10-17T01:28:40.050Z,90.20
2022-10-17T01:34:03.880Z,89.31
2022-10-17T01:39:34.400Z,88.81
2022-10-17T01:44:50.183Z,88.77
2022-10-17T01:49:55.275Z,88.07
2022-10-17T01:55:08.633Z,88.26
2022-10-17T02:00:17.789Z,88.36
2022-10-17T02:05:24.677Z,89.08
2022-10-17T02:10:53.586Z,89.14
2022-10-17T02:16:04.846Z,88.83
2022-10-17T02:21:14.360Z,88.58
2022-10-17T02:26:28.938Z,89.00
2022-10-17T02:31:39.211Z,89.33
2022-10-17T02:36:49.910Z,89.20
2022-10-17T02:41:56.670Z,90.40
2022-10-17T02:47:31.851Z,89.86
2022-10-17T02:52:48.586Z,89.54
2022-10-17T02:57:56.099Z,89.06
2022-10-17T03:02:58.780Z,88.44
2022-10-17T03:08:01.399Z,88.42
2022-10-17T03:13:04.025Z,88.29
2022-10-17T03:18:06.727Z,88.47
2022-10-17T03:23:09.392Z,88.78
2022-10-17T03:28:12.602Z,88.66
2022-10-17T03:33:15.273Z,88.49
2022-10-17T03:38:17.898Z,88.38
2022-10-17T03:43:20.498Z,88.24
2022-10-17T03:48:23.137Z,88.41
2022-10-17T03:53:25.793Z,88.18
2022-10-17T03:58:29.008Z,88.33
2022-10-17T04:03:32.004Z,87.95
2022-10-17T04:08:35.215Z,87.83
2022-10-17T04:13:37.851Z,87.99
2022-10-17T04:18:41.098Z,87.81
2022-10-17T04:23:43.721Z,87.17
2022-10-17T04:28:46.513Z,86.84
2022-10-17T04:33:50.530Z,86.51
2022-10-17T04:38:53.137Z,87.58
2022-10-17T04:43:55.733Z,87.82
2022-10-17T04:48:58.551Z,88.44
2022-10-17T04:54:01.194Z,88.69
2022-10-17T04:59:03.844Z,88.74
2022-10-17T05:04:06.511Z,88.85
2022-10-17T05:09:09.136Z,88.77
2022-10-17T05:14:11.834Z,88.32
2022-10-17T05:19:14.445Z,87.95
2022-10-17T05:24:17.232Z,88.24
2022-10-17T05:29:19.891Z,88.27
2022-10-17T05:34:22.526Z,88.45
2022-10-17T05:39:25.296Z,88.87
2022-10-17T05:44:28.230Z,89.28
2022-10-17T05:49:39.971Z,90.00
2022-10-17T05:54:47.658Z,90.06
2022-10-17T05:59:50.556Z,89.59
2022-10-17T06:04:53.361Z,88.74
2022-10-17T06:09:56.021Z,88.79
2022-10-17T06:14:59.114Z,88.88
2022-10-17T06:20:02.086Z,88.60
2022-10-17T06:25:05.181Z,88.17
2022-10-17T06:30:08.366Z,87.88
2022-10-17T06:35:11.048Z,88.51
2022-10-17T06:40:16.949Z,88.99
2022-10-17T06:45:19.583Z,89.67
2022-10-17T06:50:22.477Z,89.91
2022-10-17T06:55:25.163Z,90.36
2022-10-17T07:00:28.424Z,90.88
2022-10-17T07:05:31.176Z,90.71
2022-10-17T07:10:38.296Z,90.69
2022-10-17T07:15:42.195Z,90.62
2022-10-17T07:20:53.042Z,90.97
2022-10-17T07:26:01.633Z,91.34
2022-10-17T07:31:13.348Z,91.14
2022-10-17T07:36:16.815Z,90.79
2022-10-17T07:41:21.793Z,90.96
2022-10-17T07:46:24.901Z,90.66
2022-10-17T07:51:28.400Z,90.83
2022-10-17T07:56:31.649Z,90.63
2022-10-17T08:01:34.245Z,91.21
2022-10-17T08:06:36.940Z,91.21
2022-10-17T08:11:39.680Z,90.98
2022-10-17T08:16:43.261Z,89.98
2022-10-17T08:21:46.944Z,89.69
2022-10-17T08:26:51.830Z,89.76
2022-10-17T08:31:58.664Z,89.84
2022-10-17T08:37:04.220Z,89.64
2022-10-17T08:42:25.991Z,89.92
2022-10-17T08:47:45.555Z,90.07
2022-10-17T08:52:56.456Z,89.49
2022-10-17T08:57:59.241Z,89.20
2022-10-17T09:03:23.773Z,89.28
2022-10-17T09:08:44.452Z,88.46
2022-10-17T09:14:02.897Z,87.62
2022-10-17T09:19:24.467Z,86.43
2022-10-17T09:24:44.577Z,85.23
2022-10-17T09:29:49.998Z,84.36
2022-10-17T09:34:53.864Z,83.96
2022-10-17T09:39:56.955Z,83.07
2022-10-17T09:45:26.802Z,80.07
2022-10-17T09:50:35.021Z,78.28
2022-10-17T09:55:48.498Z,76.65
2022-10-17T10:00:51.214Z,75.00
2022-10-17T10:05:59.734Z,72.94
2022-10-17T10:11:06.558Z,71.18
2022-10-17T10:16:21.000Z,68.66
2022-10-17T10:21:26.830Z,68.13
2022-10-17T10:26:40.928Z,66.89
2022-10-17T10:31:44.138Z,64.07
2022-10-17T10:37:14.708Z,61.36
2022-10-17T10:42:27.159Z,56.77
2022-10-17T10:47:32.649Z,53.81
2022-10-17T10:52:46.337Z,51.03
2022-10-17T10:57:53.149Z,48.78
2022-10-17T11:03:12.826Z,45.62
2022-10-17T11:08:49.117Z,42.81
2022-10-17T11:14:00.739Z,41.76
2022-10-17T11:19:21.140Z,40.41
2022-10-17T11:24:27.936Z,38.81
2022-10-17T11:29:38.518Z,36.59
2022-10-17T11:34:48.230Z,35.61
2022-10-17T11:40:03.212Z,33.98
2022-10-17T11:45:14.112Z,33.60
2022-10-17T11:56:02.181Z,32.82
2022-10-17T12:01:19.834Z,31.86
2022-10-17T12:06:27.098Z,31.51
2022-10-17T12:11:58.329Z,30.87
2022-10-17T12:17:02.640Z,30.24
2022-10-17T12:22:28.689Z,30.26
2022-10-17T12:27:42.297Z,31.45
2022-10-17T12:33:06.172Z,34.39
2022-10-17T12:38:20.901Z,37.77
2022-10-17T12:43:29.670Z,38.89
2022-10-17T12:48:38.608Z,38.91
2022-10-17T12:54:02.689Z,37.80
2022-10-17T12:59:17.244Z,37.56
2022-10-17T13:04:20.831Z,39.74
2022-10-17T13:09:32.634Z,41.41
2022-10-17T13:14:35.440Z,43.06
2022-10-17T13:19:44.227Z,45.09
2022-10-17T13:24:48.179Z,47.05
2022-10-17T13:29:50.955Z,49.06
2022-10-17T13:35:09.405Z,50.88
2022-10-17T13:40:40.930Z,52.45
2022-10-17T13:45:39.695Z,54.08
2022-10-17T13:50:44.794Z,55.44
2022-10-17T13:56:15.753Z,56.23
2022-10-17T14:01:21.307Z,57.47
2022-10-17T14:06:31.352Z,58.09
2022-10-17T14:11:37.135Z,58.33
2022-10-17T14:16:42.170Z,58.62
2022-10-17T14:21:49.388Z,59.37
2022-10-17T14:26:54.308Z,60.51
2022-10-17T14:32:00.214Z,61.16
2022-10-17T14:37:10.043Z,61.79
2022-10-17T14:42:19.392Z,62.49
2022-10-17T14:47:42.601Z,63.09
2022-10-17T14:53:03.739Z,63.47
2022-10-17T14:58:17.731Z,63.50
2022-10-17T15:03:20.496Z,63.57
2022-10-17T15:08:24.238Z,63.69
2022-10-17T15:13:28.488Z,64.17
2022-10-17T15:18:32.609Z,64.84
2022-10-17T15:23:35.230Z,65.49
2022-10-17T15:28:37.905Z,66.23
2022-10-17T15:33:41.101Z,67.06
2022-10-17T15:38:43.798Z,67.73
2022-10-17T15:43:48.560Z,68.13
2022-10-17T15:48:51.759Z,68.70
2022-10-17T15:53:54.453Z,69.30
2022-10-17T15:58:58.219Z,69.74
2022-10-17T16:04:01.164Z,70.05
2022-10-17T16:09:03.983Z,70.63
2022-10-17T16:14:18.271Z,70.87
2022-10-17T16:19:21.783Z,71.27
2022-10-17T16:24:25.074Z,71.51
2022-10-17T16:29:27.680Z,71.87
2022-10-17T16:34:31.812Z,72.05
2022-10-17T16:39:34.496Z,72.25
2022-10-17T16:44:37.116Z,72.68
2022-10-17T16:49:42.900Z,73.05
2022-10-17T16:54:47.932Z,73.24
2022-10-17T16:59:50.630Z,73.46
2022-10-17T17:04:53.250Z,73.82
2022-10-17T17:09:56.437Z,73.84
2022-10-17T17:14:59.236Z,74.18
2022-10-17T17:20:01.944Z,74.63
2022-10-17T17:25:05.149Z,75.16
2022-10-17T17:30:08.552Z,75.37
2022-10-17T17:35:11.157Z,75.50
2022-10-17T17:40:13.892Z,75.62
2022-10-17T17:45:16.748Z,75.48
2022-10-17T17:50:19.770Z,75.67
2022-10-17T17:55:22.383Z,76.13
2022-10-17T18:00:25.318Z,75.91
2022-10-17T18:05:28.220Z,75.62
2022-10-17T18:10:30.815Z,75.57
2022-10-17T18:15:33.567Z,75.36
2022-10-17T18:20:41.057Z,75.06
2022-10-17T18:25:52.869Z,75.00
2022-10-17T18:30:58.250Z,74.80
2022-10-17T18:36:10.450Z,74.81
2022-10-17T18:41:16.593Z,74.79
2022-10-17T18:46:20.570Z,74.86
2022-10-17T18:51:24.896Z,74.94
2022-10-17T18:56:27.622Z,75.21
2022-10-17T19:01:30.332Z,75.54
2022-10-17T19:06:33.119Z,75.69
2022-10-17T19:11:37.418Z,75.71
2022-10-17T19:16:48.167Z,76.12
2022-10-17T19:21:51.880Z,76.26
2022-10-17T19:26:57.632Z,76.71
2022-10-17T19:32:01.095Z,76.65
2022-10-17T19:37:03.875Z,76.82
2022-10-17T19:42:07.139Z,76.89
2022-10-17T19:47:10.165Z,77.00
2022-10-17T19:52:13.354Z,76.92
2022-10-17T19:57:16.111Z,77.17
2022-10-17T20:02:18.777Z,77.51
2022-10-17T20:07:21.381Z,77.64
2022-10-17T20:12:24.096Z,77.46
2022-10-17T20:17:27.008Z,77.93
2022-10-17T20:22:30.198Z,77.86
2022-10-17T20:27:33.175Z,77.81
2022-10-17T20:32:39.461Z,77.63
2022-10-17T20:37:42.889Z,77.69
2022-10-17T20:42:45.672Z,77.82
2022-10-17T20:47:54.130Z,77.82
2022-10-17T20:53:12.349Z,77.90
2022-10-17T20:58:19.588Z,77.90
2022-10-17T21:03:22.491Z,77.71
2022-10-17T21:08:25.077Z,77.72
2022-10-17T21:13:27.673Z,77.74
2022-10-17T21:18:30.270Z,77.82
2022-10-17T21:23:32.865Z,77.90
2022-10-17T21:28:37.365Z,78.07
2022-10-17T21:33:41.738Z,78.20
2022-10-17T21:38:46.532Z,78.36
2022-10-17T21:43:53.704Z,78.57
2022-10-17T21:48:58.426Z,78.64
2022-10-17T21:54:01.073Z,78.74
2022-10-17T21:59:05.140Z,78.68
2022-10-17T22:04:11.256Z,78.85
2022-10-17T22:09:15.502Z,78.84
2022-10-17T22:14:21.171Z,79.05
2022-10-17T22:19:26.677Z,79.08
2022-10-17T22:24:29.341Z,79.28
2022-10-17T22:29:32.141Z,79.69
2022-10-17T22:34:34.922Z,79.79
2022-10-17T22:39:38.850Z,79.87
2022-10-17T22:44:41.487Z,79.79
2022-10-17T22:49:44.082Z,80.17
2022-10-17T22:54:46.702Z,80.24
2022-10-17T22:59:49.439Z,80.61
2022-10-17T23:04:52.071Z,80.33
2022-10-17T23:09:54.700Z,80.60
2022-10-17T23:14:57.347Z,80.46
2022-10-17T23:19:59.950Z,80.78
2022-10-17T23:25:02.840Z,80.57
2022-10-17T23:30:06.429Z,81.27
2022-10-17T23:35:10.059Z,81.08
2022-10-17T23:40:13.281Z,81.37
2022-10-17T23:45:16.042Z,81.14
2022-10-17T23:50:19.251Z,81.14
2022-10-17T23:55:21.990Z,81.45
